Time;durP1;ratioP1;P1;durP2;ratioP2;P2;SDS_P1;SDS_P2;PMS_P1;PMS_P2;Temp;Humidity;BMP_temperature;BMP_pressure;BME280_temperature;BME280_humidity;BME280_pressure;Samples;Min_cycle;Max_cycle;Signal;HPM_P1;HPM_P2
2022/01/31 00:01:46;;;;;;;14.10;4.50;;;4.00;83.60;;;;;;5013037;28;20472;-50
2022/01/31 00:04:13;;;;;;;13.67;4.30;;;4.00;86.00;;;;;;5013240;28;20555;-51
2022/01/31 00:06:42;;;;;;;20.33;5.10;;;4.10;83.50;;;;;;5012589;28;21016;-51
2022/01/31 00:09:14;;;;;;;16.57;4.50;;;4.00;76.90;;;;;;5011520;28;20451;-50
2022/01/31 00:11:43;;;;;;;11.10;3.63;;;4.00;76.60;;;;;;5012936;28;20479;-50
2022/01/31 00:14:20;;;;;;;11.37;4.20;;;4.00;77.00;;;;;;5011172;28;20496;-52
2022/01/31 00:16:47;;;;;;;22.50;4.30;;;4.00;75.80;;;;;;5012360;28;20475;-51
2022/01/31 00:19:13;;;;;;;19.10;5.43;;;4.00;72.50;;;;;;5012635;28;20535;-51
2022/01/31 00:21:41;;;;;;;23.20;5.90;;;4.00;72.50;;;;;;5012733;28;20583;-50
2022/01/31 00:24:08;;;;;;;23.80;4.43;;;4.00;69.10;;;;;;5012539;28;20472;-50
2022/01/31 00:26:35;;;;;;;14.23;4.67;;;4.00;67.40;;;;;;5012446;28;20587;-51
2022/01/31 00:29:01;;;;;;;23.93;5.23;;;4.00;62.40;;;;;;5012260;28;20530;-50
2022/01/31 00:31:28;;;;;;;21.57;4.70;;;3.90;53.60;;;;;;5010232;28;20491;-51
2022/01/31 00:33:54;;;;;;;17.57;5.00;;;3.90;61.20;;;;;;5012332;28;20551;-51
2022/01/31 00:36:21;;;;;;;22.03;4.03;;;3.90;58.60;;;;;;5012308;28;20491;-51
2022/01/31 00:38:49;;;;;;;21.20;5.70;;;3.90;52.30;;;;;;5012197;28;20451;-50
2022/01/31 00:41:15;;;;;;;27.80;5.00;;;3.90;48.50;;;;;;5011290;28;20599;-51
2022/01/31 00:43:44;;;;;;;20.37;4.87;;;3.90;48.60;;;;;;5012224;28;20992;-50
2022/01/31 00:46:13;;;;;;;17.77;4.90;;;3.90;41.80;;;;;;5012231;28;20468;-51
2022/01/31 00:48:43;;;;;;;21.07;4.87;;;3.90;35.00;;;;;;5011494;28;20889;-51
2022/01/31 00:51:10;;;;;;;12.93;4.10;;;3.90;20.50;;;;;;5012342;28;20448;-51
2022/01/31 00:53:37;;;;;;;15.83;3.90;;;3.90;82.30;;;;;;5012286;28;20448;-50
2022/01/31 00:56:05;;;;;;;23.03;5.40;;;3.90;99.90;;;;;;5010928;28;20554;-50
2022/01/31 00:58:32;;;;;;;28.77;5.30;;;3.80;99.90;;;;;;5011726;28;20863;-52
2022/01/31 01:00:59;;;;;;;26.30;5.47;;;3.90;99.90;;;;;;5012152;28;20918;-51
2022/01/31 01:03:25;;;;;;;19.73;5.73;;;3.80;99.90;;;;;;5012183;28;20534;-51
2022/01/31 01:05:52;;;;;;;24.90;6.10;;;3.80;99.90;;;;;;5012086;28;20550;-51
2022/01/31 01:08:19;;;;;;;25.40;5.53;;;3.80;99.90;;;;;;5011796;28;20452;-51
2022/01/31 01:10:45;;;;;;;22.90;5.57;;;3.80;99.90;;;;;;5011608;28;20534;-51
2022/01/31 01:13:14;;;;;;;22.73;6.00;;;3.70;99.90;;;;;;5012147;28;20530;-51
2022/01/31 01:15:40;;;;;;;25.10;6.50;;;3.60;99.90;;;;;;5011995;28;20852;-51
2022/01/31 01:18:07;;;;;;;18.47;4.70;;;3.70;99.90;;;;;;5010271;28;21036;-50
2022/01/31 01:20:34;;;;;;;29.83;5.97;;;3.60;99.90;;;;;;5011789;28;20538;-51
2022/01/31 01:23:00;;;;;;;24.53;5.77;;;3.60;99.90;;;;;;5011830;28;20444;-50
2022/01/31 01:25:27;;;;;;;21.73;5.73;;;3.60;99.90;;;;;;5011722;28;20475;-51
2022/01/31 01:27:54;;;;;;;25.63;5.93;;;3.50;99.90;;;;;;5055098;22;20502;-51
2022/01/31 01:30:22;;;;;;;28.13;6.17;;;3.60;99.90;;;;;;5052968;28;20446;-51
2022/01/31 01:33:00;;;;;;;27.73;7.20;;;3.60;99.90;;;;;;5055794;28;20502;-52
2022/01/31 01:35:31;;;;;;;32.73;7.10;;;3.50;99.90;;;;;;5055715;28;20445;-51
2022/01/31 01:37:59;;;;;;;29.40;6.13;;;3.50;99.90;;;;;;5055127;28;20552;-50
2022/01/31 01:40:26;;;;;;;28.97;7.60;;;3.40;99.90;;;;;;5055302;28;20497;-51
2022/01/31 01:42:52;;;;;;;23.47;6.50;;;3.40;99.90;;;;;;5045642;28;21006;-51
2022/01/31 01:45:19;;;;;;;29.10;5.83;;;3.40;99.90;;;;;;5035321;28;20798;-50
2022/01/31 01:47:47;;;;;;;29.10;6.43;;;3.40;99.90;;;;;;5035092;28;20479;-50
2022/01/31 01:50:13;;;;;;;29.87;8.10;;;3.40;99.90;;;;;;5035405;28;20534;-51
2022/01/31 01:52:40;;;;;;;20.80;5.53;;;3.40;99.90;;;;;;5035268;28;20484;-50
2022/01/31 01:55:08;;;;;;;33.90;6.80;;;3.30;99.90;;;;;;5035561;28;20549;-50
2022/01/31 01:57:35;;;;;;;26.67;5.60;;;3.30;99.90;;;;;;5034870;28;20498;-50
2022/01/31 02:00:01;;;;;;;34.90;6.73;;;3.30;99.90;;;;;;5035173;28;20479;-50
2022/01/31 02:02:28;;;;;;;26.07;6.70;;;3.30;99.90;;;;;;5035289;28;20482;-51
2022/01/31 02:04:57;;;;;;;37.97;6.10;;;3.30;99.90;;;;;;5035247;28;20481;-51
2022/01/31 02:07:24;;;;;;;29.53;6.37;;;3.30;99.90;;;;;;5034901;28;20524;-52
2022/01/31 02:09:55;;;;;;;26.40;6.73;;;3.30;99.90;;;;;;5035272;28;20454;-51
2022/01/31 02:12:23;;;;;;;29.30;6.57;;;3.30;99.90;;;;;;5034323;28;20541;-52
2022/01/31 02:14:50;;;;;;;29.60;6.17;;;3.30;99.90;;;;;;5034756;28;20569;-51
2022/01/31 02:17:16;;;;;;;30.33;6.40;;;3.30;99.90;;;;;;5034839;28;20521;-51
2022/01/31 02:19:43;;;;;;;28.47;7.20;;;3.30;99.90;;;;;;5034558;28;20952;-51
2022/01/31 02:22:10;;;;;;;24.43;5.60;;;3.30;99.90;;;;;;5034948;28;20570;-51
2022/01/31 02:24:37;;;;;;;30.70;7.00;;;3.30;99.90;;;;;;5034949;28;20505;-51
2022/01/31 02:27:04;;;;;;;35.17;5.53;;;3.30;99.90;;;;;;5032740;28;20532;-51
2022/01/31 02:29:31;;;;;;;29.10;7.57;;;3.30;99.90;;;;;;5034239;28;20443;-51
2022/01/31 02:31:58;;;;;;;21.43;6.27;;;3.30;99.90;;;;;;5034284;28;20998;-51
2022/01/31 02:34:24;;;;;;;20.67;5.70;;;3.30;99.90;;;;;;5034521;28;20486;-51
2022/01/31 02:36:51;;;;;;;25.63;5.03;;;3.30;99.90;;;;;;5034095;28;20554;-51
2022/01/31 02:39:19;;;;;;;15.70;5.03;;;3.20;99.90;;;;;;5034004;28;20542;-51
2022/01/31 02:41:48;;;;;;;29.97;6.50;;;3.20;99.90;;;;;;5034294;28;20918;-51
2022/01/31 02:44:15;;;;;;;23.13;5.83;;;3.20;99.90;;;;;;5032983;28;20466;-50
2022/01/31 02:46:49;;;;;;;28.40;6.97;;;3.10;99.90;;;;;;5034179;28;20925;-51
2022/01/31 02:49:18;;;;;;;19.50;5.43;;;3.10;99.90;;;;;;5034231;28;20447;-50
2022/01/31 02:51:49;;;;;;;28.33;6.83;;;3.10;99.90;;;;;;5033518;28;20497;-52
2022/01/31 02:54:16;;;;;;;24.97;6.03;;;3.10;99.90;;;;;;5034288;28;20882;-52
2022/01/31 02:56:44;;;;;;;34.53;7.60;;;3.10;99.90;;;;;;5040533;28;20505;-50
2022/01/31 02:59:10;;;;;;;22.50;6.30;;;3.10;99.90;;;;;;5041253;28;20554;-52
2022/01/31 03:01:37;;;;;;;29.17;6.73;;;3.10;99.90;;;;;;5033442;28;20482;-51
2022/01/31 03:04:05;;;;;;;30.17;6.70;;;3.10;99.90;;;;;;5034116;28;20538;-52
2022/01/31 03:06:31;;;;;;;27.93;6.20;;;3.20;99.90;;;;;;5033902;28;20550;-50
2022/01/31 03:08:58;;;;;;;31.43;6.23;;;3.20;99.90;;;;;;5033683;28;20447;-50
2022/01/31 03:11:25;;;;;;;41.60;7.80;;;3.20;99.90;;;;;;5033659;28;20530;-52
2022/01/31 03:13:52;;;;;;;31.00;6.80;;;3.20;99.90;;;;;;5033744;28;20479;-52
2022/01/31 03:16:19;;;;;;;34.27;5.50;;;3.20;99.90;;;;;;5033757;28;20558;-51
2022/01/31 03:18:45;;;;;;;30.20;6.47;;;3.30;99.90;;;;;;5032465;28;20533;-51
2022/01/31 03:21:12;;;;;;;27.97;6.47;;;3.30;99.90;;;;;;5033688;28;20479;-51
2022/01/31 03:23:39;;;;;;;28.73;6.47;;;3.30;99.90;;;;;;5033598;28;20455;-51
2022/01/31 03:26:05;;;;;;;32.40;7.03;;;3.30;99.90;;;;;;5033212;28;20475;-51
2022/01/31 03:28:32;;;;;;;29.10;6.63;;;3.30;99.90;;;;;;5033501;28;20538;-51
2022/01/31 03:31:00;;;;;;;31.90;6.80;;;3.30;99.90;;;;;;5033674;28;20521;-50
2022/01/31 03:33:26;;;;;;;43.30;7.80;;;3.30;99.90;;;;;;5033412;28;20471;-51
2022/01/31 03:35:53;;;;;;;33.43;6.50;;;3.30;99.90;;;;;;5033296;28;21014;-51
2022/01/31 03:38:19;;;;;;;19.30;5.90;;;3.20;99.90;;;;;;5033075;28;20877;-52
2022/01/31 03:40:46;;;;;;;28.57;5.80;;;3.20;99.90;;;;;;5033286;28;20530;-51
2022/01/31 03:43:12;;;;;;;25.30;7.00;;;3.20;99.90;;;;;;5033513;28;20538;-51
2022/01/31 03:45:39;;;;;;;29.70;7.47;;;3.20;99.90;;;;;;5033693;28;20547;-51
2022/01/31 03:48:08;;;;;;;32.97;6.30;;;3.20;99.90;;;;;;5032841;28;21166;-51
2022/01/31 03:50:34;;;;;;;17.83;5.47;;;3.20;99.90;;;;;;5032618;28;20455;-51
2022/01/31 03:53:01;;;;;;;38.67;6.97;;;3.20;99.90;;;;;;5033031;28;20537;-50
2022/01/31 03:55:28;;;;;;;38.10;7.60;;;3.20;99.90;;;;;;5032847;28;20964;-51
2022/01/31 03:57:55;;;;;;;32.33;8.23;;;3.20;99.90;;;;;;5032195;28;21043;-51
2022/01/31 04:00:24;;;;;;;22.67;5.27;;;3.10;99.90;;;;;;5032831;28;20963;-51
2022/01/31 04:02:51;;;;;;;28.47;7.47;;;3.10;99.90;;;;;;5032889;28;20547;-51
2022/01/31 04:05:19;;;;;;;26.10;6.37;;;3.10;99.90;;;;;;5032830;28;20534;-51
2022/01/31 04:07:45;;;;;;;41.93;6.70;;;3.10;99.90;;;;;;5032422;28;20565;-50
2022/01/31 04:10:12;;;;;;;40.93;7.40;;;3.10;99.90;;;;;;5032987;28;20529;-51
2022/01/31 04:12:38;;;;;;;40.83;8.30;;;3.10;99.90;;;;;;5032852;28;20526;-52
2022/01/31 04:15:06;;;;;;;30.13;7.67;;;3.00;99.90;;;;;;5032182;28;20494;-51
2022/01/31 04:17:33;;;;;;;28.83;6.80;;;3.00;99.90;;;;;;5032358;28;20545;-52
2022/01/31 04:19:59;;;;;;;28.63;6.00;;;3.00;99.90;;;;;;5032568;28;20451;-52
2022/01/31 04:22:31;;;;;;;28.20;6.30;;;3.10;99.90;;;;;;5032718;28;20487;-51
2022/01/31 04:25:01;;;;;;;27.50;5.80;;;3.00;99.90;;;;;;5032810;28;20502;-51
2022/01/31 04:27:32;;;;;;;25.03;5.30;;;3.00;99.90;;;;;;5032065;28;20486;-52
2022/01/31 04:29:59;;;;;;;32.07;7.40;;;2.90;99.90;;;;;;5032541;28;20534;-51
2022/01/31 04:32:25;;;;;;;28.60;5.83;;;2.90;99.90;;;;;;5032320;28;20447;-51
2022/01/31 04:34:52;;;;;;;26.47;6.00;;;2.90;99.90;;;;;;5032239;28;20541;-50
2022/01/31 04:37:18;;;;;;;20.83;6.47;;;2.90;99.90;;;;;;5032351;28;20557;-51
2022/01/31 04:39:46;;;;;;;43.53;7.63;;;2.90;99.90;;;;;;5032123;28;20455;-50
2022/01/31 04:42:13;;;;;;;32.53;6.80;;;2.90;99.90;;;;;;5032214;28;21047;-50
2022/01/31 04:44:39;;;;;;;26.80;6.53;;;2.90;99.90;;;;;;5031419;28;20549;-52
2022/01/31 04:47:07;;;;;;;41.37;7.63;;;2.90;99.90;;;;;;5032264;28;20528;-50
2022/01/31 04:49:35;;;;;;;30.23;6.50;;;2.80;99.90;;;;;;5031552;28;20945;-51
2022/01/31 04:52:02;;;;;;;40.93;8.40;;;2.80;99.90;;;;;;5032251;28;20450;-52
2022/01/31 04:54:28;;;;;;;32.13;7.10;;;2.80;99.90;;;;;;5032042;28;21017;-51
2022/01/31 04:56:56;;;;;;;46.57;9.40;;;2.80;99.90;;;;;;5031915;28;20525;-51
2022/01/31 04:59:23;;;;;;;26.00;7.37;;;2.80;99.90;;;;;;5031754;28;20543;-51
2022/01/31 05:01:50;;;;;;;30.83;7.73;;;2.80;99.90;;;;;;5031470;28;20538;-52
2022/01/31 05:04:16;;;;;;;32.70;6.97;;;2.80;99.90;;;;;;5031137;28;21207;-52
2022/01/31 05:06:45;;;;;;;24.80;7.17;;;2.80;99.90;;;;;;5031969;28;20876;-50
2022/01/31 05:09:12;;;;;;;26.73;7.10;;;2.80;99.90;;;;;;5031681;28;20451;-51
2022/01/31 05:11:38;;;;;;;31.90;7.47;;;2.80;99.90;;;;;;5031542;28;20944;-51
2022/01/31 05:14:06;;;;;;;35.07;7.43;;;2.80;99.90;;;;;;5031802;28;20486;-50
2022/01/31 05:16:33;;;;;;;30.50;7.73;;;2.80;99.90;;;;;;5031481;28;20577;-50
2022/01/31 05:19:01;;;;;;;30.37;6.87;;;2.70;99.90;;;;;;5031596;28;20474;-52
2022/01/31 05:21:28;;;;;;;29.97;7.00;;;2.80;99.90;;;;;;5031830;28;20514;-51
2022/01/31 05:23:54;;;;;;;23.60;6.90;;;2.70;99.90;;;;;;5031863;28;20485;-52
2022/01/31 05:26:21;;;;;;;45.73;8.00;;;2.70;99.90;;;;;;5031536;28;20897;-52
2022/01/31 05:28:47;;;;;;;32.60;7.20;;;2.70;99.90;;;;;;5031352;28;20529;-51
2022/01/31 05:31:15;;;;;;;23.30;7.50;;;2.70;99.90;;;;;;5031655;28;20534;-52
2022/01/31 05:33:42;;;;;;;47.27;9.17;;;2.70;99.90;;;;;;5031543;28;21015;-50
2022/01/31 05:36:08;;;;;;;37.63;8.07;;;2.70;99.90;;;;;;5031615;28;20494;-50
2022/01/31 05:38:38;;;;;;;39.80;8.50;;;2.70;99.90;;;;;;5031423;28;20885;-50
2022/01/31 05:41:07;;;;;;;34.57;8.07;;;2.70;99.90;;;;;;5031656;28;20513;-52
2022/01/31 05:43:34;;;;;;;29.30;6.93;;;2.70;99.90;;;;;;5030764;28;20458;-51
2022/01/31 05:46:01;;;;;;;29.33;7.60;;;2.60;99.90;;;;;;5031246;28;20546;-50
2022/01/31 05:48:28;;;;;;;31.60;7.90;;;2.70;99.90;;;;;;5031404;28;20538;-50
2022/01/31 05:50:55;;;;;;;34.07;7.57;;;2.70;99.90;;;;;;5031517;28;20486;-51
2022/01/31 05:53:22;;;;;;;31.47;7.30;;;2.70;99.90;;;;;;5031425;28;20887;-51
2022/01/31 05:55:48;;;;;;;30.07;7.10;;;2.60;99.90;;;;;;5031358;28;20446;-50
2022/01/31 05:58:15;;;;;;;32.07;8.20;;;2.60;99.90;;;;;;5030770;28;21075;-51
2022/01/31 06:00:42;;;;;;;29.57;7.47;;;2.60;99.90;;;;;;5031570;28;20526;-50
2022/01/31 06:03:08;;;;;;;33.80;8.10;;;2.50;99.90;;;;;;5031477;28;20574;-51
2022/01/31 06:05:36;;;;;;;31.00;7.70;;;2.50;99.90;;;;;;5031413;28;20553;-51
2022/01/31 06:08:03;;;;;;;32.93;7.57;;;2.50;99.90;;;;;;5030962;28;20498;-51
2022/01/31 06:10:29;;;;;;;34.87;7.90;;;2.50;99.90;;;;;;5031222;28;20501;-52
2022/01/31 06:12:56;;;;;;;30.20;7.83;;;2.50;99.90;;;;;;5031042;28;20956;-51
2022/01/31 06:15:23;;;;;;;30.27;8.63;;;2.50;99.90;;;;;;5034053;28;20474;-51
2022/01/31 06:17:50;;;;;;;27.77;6.93;;;2.50;99.90;;;;;;5034626;28;20474;-52
2022/01/31 06:20:17;;;;;;;29.63;7.07;;;2.50;99.90;;;;;;5034948;28;20447;-51
2022/01/31 06:22:50;;;;;;;46.40;8.00;;;2.50;99.90;;;;;;5034748;28;20566;-51
2022/01/31 06:25:18;;;;;;;25.50;6.87;;;2.50;99.90;;;;;;5034952;28;20431;-51
2022/01/31 06:27:45;;;;;;;31.20;6.60;;;2.50;99.90;;;;;;5033936;28;21011;-51
2022/01/31 06:30:12;;;;;;;26.37;7.13;;;2.40;99.90;;;;;;5034756;28;20483;-51
2022/01/31 06:32:39;;;;;;;40.47;7.47;;;2.40;99.90;;;;;;5034709;28;20861;-51
2022/01/31 06:35:08;;;;;;;30.67;7.60;;;2.40;99.90;;;;;;5034631;28;20474;-51
2022/01/31 06:37:35;;;;;;;34.87;7.60;;;2.40;99.90;;;;;;5034086;28;20549;-51
2022/01/31 06:40:03;;;;;;;27.83;7.10;;;2.40;99.90;;;;;;5034405;28;20483;-51
2022/01/31 06:42:30;;;;;;;26.00;7.47;;;2.40;99.90;;;;;;5034440;28;20578;-51
2022/01/31 06:44:57;;;;;;;36.30;7.87;;;2.40;99.90;;;;;;5032718;28;20969;-51
2022/01/31 06:47:24;;;;;;;33.23;7.50;;;2.40;99.90;;;;;;5033296;28;20613;-52
2022/01/31 06:49:51;;;;;;;35.63;7.90;;;2.40;99.90;;;;;;5034251;28;20451;-52
2022/01/31 06:52:17;;;;;;;30.70;6.67;;;2.50;99.90;;;;;;5034143;28;20450;-50
2022/01/31 06:54:49;;;;;;;25.63;6.90;;;2.40;99.90;;;;;;5033841;28;20975;-51
2022/01/31 06:57:17;;;;;;;31.00;6.60;;;2.40;99.90;;;;;;5034269;28;20506;-51
2022/01/31 06:59:43;;;;;;;22.20;6.73;;;2.40;99.90;;;;;;5033991;28;20502;-50
2022/01/31 07:02:10;;;;;;;35.27;6.90;;;2.40;99.90;;;;;;5034111;28;20910;-51
2022/01/31 07:04:37;;;;;;;28.27;5.93;;;2.40;99.90;;;;;;5034031;28;20529;-50
2022/01/31 07:07:04;;;;;;;31.47;6.70;;;2.40;99.90;;;;;;5034162;28;20494;-51
2022/01/31 07:09:30;;;;;;;33.97;7.10;;;2.40;99.90;;;;;;5033838;28;20534;-52
2022/01/31 07:12:00;;;;;;;27.90;6.90;;;2.40;99.90;;;;;;5034109;28;20478;-52
2022/01/31 07:14:31;;;;;;;28.17;7.17;;;2.40;99.90;;;;;;5033257;28;20455;-50
2022/01/31 07:16:58;;;;;;;32.47;7.40;;;2.40;99.90;;;;;;5033116;28;20592;-52
2022/01/31 07:19:28;;;;;;;36.27;7.90;;;2.40;99.90;;;;;;5033532;28;20509;-50
2022/01/31 07:21:54;;;;;;;32.63;7.23;;;2.40;99.90;;;;;;5033338;28;20450;-51
2022/01/31 07:24:24;;;;;;;29.53;7.70;;;2.40;99.90;;;;;;5033941;28;20458;-51
2022/01/31 07:26:52;;;;;;;19.97;6.80;;;2.40;99.90;;;;;;5051681;22;20930;-51
2022/01/31 07:29:20;;;;;;;25.40;6.40;;;2.40;99.90;;;;;;5062143;28;20492;-50
2022/01/31 07:31:49;;;;;;;29.75;7.20;;;2.40;99.90;;;;;;5053029;28;20432;-51
2022/01/31 07:34:17;;;;;;;26.37;7.27;;;2.40;99.90;;;;;;5054272;28;20315;-50
2022/01/31 07:36:44;;;;;;;39.17;8.33;;;2.40;99.90;;;;;;5061960;28;20552;-51
2022/01/31 07:39:11;;;;;;;32.87;6.57;;;2.50;99.90;;;;;;5053536;28;20478;-51
2022/01/31 07:41:38;;;;;;;25.93;7.00;;;2.50;99.90;;;;;;5053654;28;20529;-51
2022/01/31 07:44:05;;;;;;;31.23;11.40;;;2.50;99.90;;;;;;5052629;28;20928;-51
2022/01/31 07:46:32;;;;;;;51.03;23.57;;;2.50;99.90;;;;;;5053948;28;20842;-51
2022/01/31 07:48:59;;;;;;;36.10;18.90;;;2.50;99.90;;;;;;5053471;28;20485;-51
2022/01/31 07:51:26;;;;;;;36.73;14.40;;;2.60;99.90;;;;;;5053479;28;20492;-50
2022/01/31 07:53:53;;;;;;;32.17;12.10;;;2.60;99.90;;;;;;5053383;28;20473;-50
2022/01/31 07:56:20;;;;;;;33.07;7.90;;;2.60;99.90;;;;;;5053198;28;20502;-50
2022/01/31 07:58:47;;;;;;;24.80;7.00;;;2.60;99.90;;;;;;5052657;28;20486;-50
2022/01/31 08:01:14;;;;;;;35.60;7.70;;;2.60;99.90;;;;;;5053339;28;20481;-50
2022/01/31 08:03:42;;;;;;;32.00;7.10;;;2.60;99.90;;;;;;5051983;28;20517;-50
2022/01/31 08:06:09;;;;;;;20.40;6.77;;;2.60;99.90;;;;;;5052981;28;20533;-50
2022/01/31 08:08:36;;;;;;;26.10;7.73;;;2.60;99.90;;;;;;5052727;28;20469;-50
2022/01/31 08:11:05;;;;;;;26.20;6.30;;;2.70;99.90;;;;;;5052797;28;20450;-50
2022/01/31 08:13:31;;;;;;;35.73;7.60;;;2.70;99.90;;;;;;5052594;28;20483;-51
2022/01/31 08:16:09;;;;;;;28.63;6.67;;;2.80;99.90;;;;;;5052944;28;20458;-51
2022/01/31 08:18:36;;;;;;;31.70;7.43;;;2.80;99.90;;;;;;5052355;28;20599;-51
2022/01/31 08:21:03;;;;;;;34.60;7.20;;;2.80;99.90;;;;;;5052668;28;20489;-52
2022/01/31 08:23:32;;;;;;;25.90;6.20;;;2.80;99.90;;;;;;5052719;28;20510;-52
2022/01/31 08:26:01;;;;;;;24.93;7.03;;;2.90;99.90;;;;;;5052416;28;20529;-51
2022/01/31 08:28:34;;;;;;;31.40;6.80;;;2.90;99.90;;;;;;5051101;28;20492;-51
2022/01/31 08:31:07;;;;;;;24.23;7.03;;;2.90;99.90;;;;;;5052760;28;21054;-51
2022/01/31 08:33:36;;;;;;;33.87;7.40;;;3.00;99.90;;;;;;5052400;28;20923;-51
2022/01/31 08:36:05;;;;;;;20.93;6.10;;;3.00;99.90;;;;;;5052034;28;21017;-51
2022/01/31 08:38:33;;;;;;;30.07;6.80;;;3.00;99.90;;;;;;5051931;28;20549;-51
2022/01/31 08:41:00;;;;;;;35.33;9.13;;;3.00;99.90;;;;;;5052966;28;20450;-51
2022/01/31 08:43:27;;;;;;;39.00;8.77;;;3.00;99.90;;;;;;5051701;28;20493;-52
2022/01/31 08:45:55;;;;;;;34.17;8.50;;;3.00;99.90;;;;;;5032636;28;20463;-50
2022/01/31 08:48:22;;;;;;;31.23;7.03;;;3.10;99.90;;;;;;5032111;28;20554;-49
2022/01/31 08:50:48;;;;;;;26.63;7.70;;;3.10;99.90;;;;;;5045141;28;20446;-50
2022/01/31 08:53:15;;;;;;;22.20;7.07;;;3.10;99.90;;;;;;5052221;28;20529;-50
2022/01/31 08:55:48;;;;;;;26.40;6.83;;;3.10;99.90;;;;;;5052444;28;20481;-50
2022/01/31 08:58:16;;;;;;;27.90;8.33;;;3.20;99.90;;;;;;5051928;28;20507;-51
2022/01/31 09:00:43;;;;;;;28.13;7.07;;;3.20;99.90;;;;;;5052332;28;20442;-52
2022/01/31 09:03:22;;;;;;;28.23;7.60;;;3.30;99.90;;;;;;5052215;28;20900;-51
2022/01/31 09:05:49;;;;;;;29.83;7.97;;;3.30;99.90;;;;;;5052384;28;20441;-51
2022/01/31 09:08:16;;;;;;;26.93;7.30;;;3.30;99.90;;;;;;5051961;28;20545;-51
2022/01/31 09:10:44;;;;;;;26.97;7.97;;;3.40;99.90;;;;;;5052192;28;20885;-50
2022/01/31 09:13:12;;;;;;;33.43;6.93;;;3.50;99.90;;;;;;5051585;28;20454;-50
2022/01/31 09:15:39;;;;;;;31.23;7.83;;;3.50;99.90;;;;;;5051810;28;20983;-51
2022/01/31 09:18:08;;;;;;;29.57;7.43;;;3.60;99.90;;;;;;5051766;28;20524;-51
2022/01/31 09:20:35;;;;;;;33.00;8.40;;;3.60;99.90;;;;;;5052399;28;20981;-51
2022/01/31 09:23:02;;;;;;;21.63;7.20;;;3.70;99.90;;;;;;5052473;28;21029;-51
2022/01/31 09:25:29;;;;;;;36.03;8.23;;;3.70;99.90;;;;;;5052133;28;20500;-51
2022/01/31 09:27:57;;;;;;;27.10;6.80;;;3.80;99.70;;;;;;5051694;28;20489;-50
2022/01/31 09:30:26;;;;;;;27.87;7.60;;;3.80;99.90;;;;;;5051689;28;20504;-51
2022/01/31 09:32:54;;;;;;;27.30;7.37;;;3.80;87.90;;;;;;5052258;28;20446;-50
2022/01/31 09:35:21;;;;;;;24.23;6.17;;;3.80;23.10;;;;;;5051816;28;21107;-50
2022/01/31 09:37:48;;;;;;;22.30;7.53;;;3.80;26.30;;;;;;5051190;28;20556;-49
2022/01/31 09:40:18;;;;;;;24.87;7.50;;;3.90;79.00;;;;;;5051633;28;20446;-50
2022/01/31 09:43:04;;;;;;;46.03;7.83;;;3.90;71.50;;;;;;5051635;28;20481;-50
2022/01/31 09:45:48;;;;;;;30.47;9.00;;;3.90;24.90;;;;;;5049741;28;20886;-51
2022/01/31 09:48:35;;;;;;;27.33;7.03;;;4.00;99.90;;;;;;5051542;28;20470;-51
2022/01/31 09:51:05;;;;;;;38.37;8.47;;;4.10;85.60;;;;;;5055447;28;20503;-51
2022/01/31 09:53:35;;;;;;;42.30;8.17;;;4.00;99.90;;;;;;5055395;28;20495;-50
2022/01/31 09:56:02;;;;;;;30.93;7.27;;;4.00;99.90;;;;;;5055777;28;20868;-50
2022/01/31 09:58:30;;;;;;;40.70;9.07;;;4.00;91.10;;;;;;5055211;28;20472;-51
2022/01/31 10:01:07;;;;;;;27.57;7.23;;;4.10;99.90;;;;;;5054552;28;20468;-51
2022/01/31 10:03:44;;;;;;;37.07;8.13;;;4.10;99.90;;;;;;5055123;28;20481;-51
2022/01/31 10:06:20;;;;;;;29.50;8.33;;;4.20;99.90;;;;;;5055080;28;20489;-51
2022/01/31 10:08:47;;;;;;;39.63;9.17;;;4.20;34.20;;;;;;5054758;28;20470;-51
2022/01/31 10:11:27;;;;;;;30.87;7.67;;;4.30;30.30;;;;;;5055221;28;20633;-50
2022/01/31 10:16:46;;;;;;;24.30;6.23;;;4.60;41.70;;;;;;5054617;28;20500;-51
2022/01/31 10:19:13;;;;;;;27.90;9.70;;;4.60;46.90;;;;;;5053573;28;21030;-51
2022/01/31 10:21:58;;;;;;;32.97;7.50;;;4.50;60.00;;;;;;5054608;28;20908;-51
2022/01/31 10:24:26;;;;;;;33.73;7.77;;;4.60;56.40;;;;;;5054739;28;21045;-51
2022/01/31 10:26:53;;;;;;;25.30;6.57;;;4.50;66.70;;;;;;5054568;28;20616;-51
2022/01/31 10:29:23;;;;;;;28.00;6.87;;;4.50;62.60;;;;;;5054679;28;20507;-51
2022/01/31 10:32:05;;;;;;;29.83;8.10;;;4.50;59.90;;;;;;5054593;28;20446;-51
2022/01/31 10:34:34;;;;;;;21.90;6.30;;;4.50;64.50;;;;;;5054689;28;20442;-50
2022/01/31 10:37:03;;;;;;;35.87;7.00;;;4.50;64.10;;;;;;5054392;28;20465;-52
2022/01/31 10:45:37;;;;;;;26.73;7.50;;;4.70;57.90;;;;;;5049293;28;20824;-51
2022/01/31 10:51:34;;;;;;;21.00;6.27;;;4.70;83.20;;;;;;5054569;28;20477;-50
2022/01/31 10:54:07;;;;;;;23.50;7.37;;;4.70;81.70;;;;;;5054205;28;20438;-50
2022/01/31 10:56:39;;;;;;;31.60;7.70;;;4.70;78.70;;;;;;5054305;28;21021;-51
2022/01/31 10:59:09;;;;;;;28.40;7.87;;;4.50;80.40;;;;;;5053998;28;20958;-51
2022/01/31 11:01:38;;;;;;;27.47;7.07;;;4.60;81.00;;;;;;5053710;28;20477;-51
2022/01/31 11:04:07;;;;;;;17.70;6.00;;;4.60;79.30;;;;;;5053985;28;20505;-51
2022/01/31 11:06:34;;;;;;;33.83;7.80;;;4.70;80.10;;;;;;5054227;28;21010;-51
2022/01/31 11:09:03;;;;;;;25.77;9.00;;;4.60;82.50;;;;;;5054102;28;20445;-50
2022/01/31 11:11:31;;;;;;;30.37;6.50;;;4.60;81.10;;;;;;5054045;28;20993;-50
2022/01/31 11:13:59;;;;;;;28.53;7.20;;;4.60;69.10;;;;;;5053951;28;20470;-51
2022/01/31 11:16:27;;;;;;;28.37;6.73;;;4.70;81.70;;;;;;5052862;28;20466;-50
2022/01/31 11:19:00;;;;;;;28.23;7.60;;;4.70;83.00;;;;;;5053349;28;20508;-52
2022/01/31 11:21:29;;;;;;;25.90;7.27;;;4.60;78.40;;;;;;5053980;28;20476;-52
2022/01/31 11:24:01;;;;;;;49.97;7.43;;;4.60;77.90;;;;;;5053818;28;20477;-51
2022/01/31 11:26:37;;;;;;;35.07;6.70;;;4.60;81.40;;;;;;5053527;28;20825;-51
2022/01/31 11:29:07;;;;;;;23.43;5.80;;;4.70;81.80;;;;;;5053368;28;20504;-51
2022/01/31 11:31:36;;;;;;;25.83;7.47;;;4.70;80.30;;;;;;5053556;28;20453;-51
2022/01/31 11:34:06;;;;;;;37.20;7.77;;;4.70;81.20;;;;;;5053720;28;20512;-51
2022/01/31 11:36:35;;;;;;;29.37;7.17;;;4.80;85.10;;;;;;5053592;28;20496;-51
2022/01/31 11:39:06;;;;;;;22.07;5.70;;;4.90;85.00;;;;;;5053324;28;20798;-51
2022/01/31 11:41:34;;;;;;;33.40;7.33;;;4.80;80.00;;;;;;5053284;28;20446;-51
2022/01/31 11:44:08;;;;;;;31.23;6.43;;;5.00;90.20;;;;;;5053520;28;20606;-51
2022/01/31 11:46:37;;;;;;;25.60;7.10;;;5.00;98.50;;;;;;5052258;28;20546;-51
2022/01/31 11:49:12;;;;;;;23.83;6.57;;;5.00;96.60;;;;;;5053023;28;20489;-51
2022/01/31 11:51:51;;;;;;;24.63;6.23;;;5.20;95.70;;;;;;5053313;28;20477;-51
2022/01/31 11:54:23;;;;;;;43.17;8.07;;;5.30;96.20;;;;;;5053217;28;20442;-51
2022/01/31 11:56:52;;;;;;;29.10;6.50;;;5.20;99.90;;;;;;5053452;28;20535;-50
2022/01/31 11:59:21;;;;;;;32.37;7.80;;;5.40;99.90;;;;;;5053077;28;20449;-51
2022/01/31 12:01:50;;;;;;;32.17;12.47;;;5.30;99.90;;;;;;5052765;28;20533;-51
2022/01/31 12:04:22;;;;;;;26.03;9.23;;;5.30;80.60;;;;;;5052916;28;20919;-51
2022/01/31 12:06:48;;;;;;;31.27;8.00;;;5.40;65.40;;;;;;5052870;28;20489;-50
2022/01/31 12:09:20;;;;;;;29.00;7.67;;;5.30;77.00;;;;;;5053030;28;20541;-49
2022/01/31 12:11:54;;;;;;;29.33;9.13;;;5.20;72.90;;;;;;5052692;28;20480;-50
2022/01/31 12:14:25;;;;;;;29.37;8.00;;;5.20;72.00;;;;;;5053008;28;20536;-50
2022/01/31 12:17:10;;;;;;;44.93;10.00;;;5.20;59.80;;;;;;5052258;28;20481;-51
2022/01/31 12:19:59;;;;;;;47.17;10.50;;;5.20;60.50;;;;;;5052949;28;20488;-52
2022/01/31 12:22:47;;;;;;;26.20;8.40;;;5.20;64.10;;;;;;5052762;28;20473;-51
2022/01/31 12:25:28;;;;;;;29.90;7.80;;;5.10;59.20;;;;;;5052481;28;20485;-51
2022/01/31 12:27:56;;;;;;;29.83;7.53;;;4.90;71.60;;;;;;5052218;28;20563;-52
2022/01/31 12:30:34;;;;;;;23.30;7.40;;;4.90;62.50;;;;;;5052590;28;20481;-52
2022/01/31 12:33:01;;;;;;;27.93;6.97;;;5.00;65.60;;;;;;5052685;28;20533;-52
2022/01/31 12:35:35;;;;;;;32.63;6.97;;;5.00;68.00;;;;;;5051951;28;20493;-52
2022/01/31 12:38:03;;;;;;;35.33;9.10;;;5.00;57.00;;;;;;5051863;28;20470;-51
2022/01/31 12:40:33;;;;;;;38.03;7.33;;;5.10;49.90;;;;;;5052371;28;20453;-51
2022/01/31 12:46:20;;;;;;;28.47;7.87;;;5.00;65.70;;;;;;5051230;28;20959;-51
2022/01/31 12:49:11;;;;;;;37.67;7.40;;;5.20;78.20;;;;;;5051813;28;20826;-51
2022/01/31 12:52:04;;;;;;;35.00;9.57;;;5.40;72.90;;;;;;5052037;28;20544;-52
2022/01/31 12:54:32;;;;;;;23.40;7.53;;;5.50;82.20;;;;;;5033059;28;20451;-51
2022/01/31 12:57:08;;;;;;;25.17;7.83;;;5.40;87.50;;;;;;5051650;28;20490;-51
2022/01/31 12:59:35;;;;;;;33.13;7.73;;;5.40;85.20;;;;;;5051761;28;20445;-51
2022/01/31 13:02:06;;;;;;;42.17;8.37;;;5.30;76.40;;;;;;5052084;28;20933;-51
2022/01/31 13:04:32;;;;;;;37.33;8.37;;;5.40;83.70;;;;;;5051941;28;20568;-50
2022/01/31 13:07:00;;;;;;;30.83;7.80;;;5.60;89.70;;;;;;5052041;28;20498;-52
2022/01/31 13:09:30;;;;;;;27.23;8.10;;;5.80;92.90;;;;;;5051519;28;20998;-51